sensor_id;sensor_type;location;lat;lon;timestamp;temperature;humidity
10848;DHT22;5477;48.806;9.154;2022-09-21T00:01:11;6.90;99.90
10848;DHT22;5477;48.806;9.154;2022-09-21T00:03:40;6.90;99.90
10848;DHT22;5477;48.806;9.154;2022-09-21T00:06:09;6.90;99.90
10848;DHT22;5477;48.806;9.154;2022-09-21T00:08:38;6.90;99.90
10848;DHT22;5477;48.806;9.154;2022-09-21T00:11:10;6.80;99.90
10848;DHT22;5477;48.806;9.154;2022-09-21T00:13:40;6.80;99.90
10848;DHT22;5477;48.806;9.154;2022-09-21T00:16:11;6.90;99.90
10848;DHT22;5477;48.806;9.154;2022-09-21T00:18:39;6.90;99.90
10848;DHT22;5477;48.806;9.154;2022-09-21T00:21:08;7.00;99.90
10848;DHT22;5477;48.806;9.154;2022-09-21T00:23:36;7.00;99.90
10848;DHT22;5477;48.806;9.154;2022-09-21T00:26:08;7.00;99.90
10848;DHT22;5477;48.806;9.154;2022-09-21T00:28:36;6.90;99.90
10848;DHT22;5477;48.806;9.154;2022-09-21T00:31:08;6.80;99.90
10848;DHT22;5477;48.806;9.154;2022-09-21T00:33:38;6.70;99.90
10848;DHT22;5477;48.806;9.154;2022-09-21T00:36:08;6.60;99.90
10848;DHT22;5477;48.806;9.154;2022-09-21T00:38:37;6.60;99.90
10848;DHT22;5477;48.806;9.154;2022-09-21T00:41:09;6.60;99.90
10848;DHT22;5477;48.806;9.154;2022-09-21T00:43:44;6.60;99.90
10848;DHT22;5477;48.806;9.154;2022-09-21T00:46:15;6.60;99.90
10848;DHT22;5477;48.806;9.154;2022-09-21T00:48:45;6.70;99.90
10848;DHT22;5477;48.806;9.154;2022-09-21T00:51:13;6.70;99.90
10848;DHT22;5477;48.806;9.154;2022-09-21T00:53:42;6.60;99.90
10848;DHT22;5477;48.806;9.154;2022-09-21T00:56:11;6.50;99.90
10848;DHT22;5477;48.806;9.154;2022-09-21T00:58:44;6.30;99.90
10848;DHT22;5477;48.806;9.154;2022-09-21T01:01:13;6.20;99.90
10848;DHT22;5477;48.806;9.154;2022-09-21T01:03:42;6.10;99.90
10848;DHT22;5477;48.806;9.154;2022-09-21T01:06:12;6.00;99.90
10848;DHT22;5477;48.806;9.154;2022-09-21T01:08:41;6.00;99.90
10848;DHT22;5477;48.806;9.154;2022-09-21T01:11:31;6.10;99.90
10848;DHT22;5477;48.806;9.154;2022-09-21T01:14:14;6.10;99.90
10848;DHT22;5477;48.806;9.154;2022-09-21T01:16:53;6.10;99.90
10848;DHT22;5477;48.806;9.154;2022-09-21T01:19:57;6.20;99.90
10848;DHT22;5477;48.806;9.154;2022-09-21T01:22:42;6.20;99.90
10848;DHT22;5477;48.806;9.154;2022-09-21T01:25:18;6.20;99.90
10848;DHT22;5477;48.806;9.154;2022-09-21T01:28:03;6.30;99.90
10848;DHT22;5477;48.806;9.154;2022-09-21T01:30:36;6.30;99.90
10848;DHT22;5477;48.806;9.154;2022-09-21T01:33:16;6.40;99.90
10848;DHT22;5477;48.806;9.154;2022-09-21T01:35:47;6.40;99.90
10848;DHT22;5477;48.806;9.154;2022-09-21T01:38:20;6.30;99.90
10848;DHT22;5477;48.806;9.154;2022-09-21T01:40:51;6.40;99.90
10848;DHT22;5477;48.806;9.154;2022-09-21T01:43:23;6.30;99.90
10848;DHT22;5477;48.806;9.154;2022-09-21T01:45:55;6.30;99.90
10848;DHT22;5477;48.806;9.154;2022-09-21T01:48:31;6.30;99.90
10848;DHT22;5477;48.806;9.154;2022-09-21T01:51:03;6.30;99.90
10848;DHT22;5477;48.806;9.154;2022-09-21T01:53:37;6.20;99.90
10848;DHT22;5477;48.806;9.154;2022-09-21T01:56:11;6.20;99.90
10848;DHT22;5477;48.806;9.154;2022-09-21T01:58:43;6.10;99.90
10848;DHT22;5477;48.806;9.154;2022-09-21T02:01:16;6.20;99.90
10848;DHT22;5477;48.806;9.154;2022-09-21T02:03:49;6.20;99.90
10848;DHT22;5477;48.806;9.154;2022-09-21T02:06:18;6.20;99.90
10848;DHT22;5477;48.806;9.154;2022-09-21T02:08:46;6.20;99.90
10848;DHT22;5477;48.806;9.154;2022-09-21T02:11:14;6.10;99.90
10848;DHT22;5477;48.806;9.154;2022-09-21T02:13:44;6.10;99.90
10848;DHT22;5477;48.806;9.154;2022-09-21T02:16:30;6.00;99.90
10848;DHT22;5477;48.806;9.154;2022-09-21T02:19:11;6.00;99.90
10848;DHT22;5477;48.806;9.154;2022-09-21T02:21:50;5.90;99.90
10848;DHT22;5477;48.806;9.154;2022-09-21T02:24:32;5.80;99.90
10848;DHT22;5477;48.806;9.154;2022-09-21T02:27:05;5.80;99.90
10848;DHT22;5477;48.806;9.154;2022-09-21T02:29:42;5.70;99.90
10848;DHT22;5477;48.806;9.154;2022-09-21T02:32:19;5.90;99.90
10848;DHT22;5477;48.806;9.154;2022-09-21T02:34:52;5.90;99.90
10848;DHT22;5477;48.806;9.154;2022-09-21T02:37:28;5.90;99.90
10848;DHT22;5477;48.806;9.154;2022-09-21T02:40:03;5.80;99.90
10848;DHT22;5477;48.806;9.154;2022-09-21T02:42:38;5.80;99.90
10848;DHT22;5477;48.806;9.154;2022-09-21T02:45:11;5.70;99.90
10848;DHT22;5477;48.806;9.154;2022-09-21T02:47:45;5.70;99.90
10848;DHT22;5477;48.806;9.154;2022-09-21T02:50:20;5.50;99.90
10848;DHT22;5477;48.806;9.154;2022-09-21T02:52:51;5.50;99.90
10848;DHT22;5477;48.806;9.154;2022-09-21T02:55:21;5.60;99.90
10848;DHT22;5477;48.806;9.154;2022-09-21T02:57:49;5.60;99.90
10848;DHT22;5477;48.806;9.154;2022-09-21T03:00:18;5.60;99.90
10848;DHT22;5477;48.806;9.154;2022-09-21T03:02:47;5.60;99.90
10848;DHT22;5477;48.806;9.154;2022-09-21T03:05:15;5.60;99.90
10848;DHT22;5477;48.806;9.154;2022-09-21T03:07:43;5.60;99.90
10848;DHT22;5477;48.806;9.154;2022-09-21T03:10:11;5.50;99.90
10848;DHT22;5477;48.806;9.154;2022-09-21T03:12:39;5.40;99.90
10848;DHT22;5477;48.806;9.154;2022-09-21T03:15:12;5.40;99.90
10848;DHT22;5477;48.806;9.154;2022-09-21T03:17:42;5.40;99.90
10848;DHT22;5477;48.806;9.154;2022-09-21T03:20:11;5.40;99.90
10848;DHT22;5477;48.806;9.154;2022-09-21T03:22:39;5.40;99.90
10848;DHT22;5477;48.806;9.154;2022-09-21T03:25:08;5.40;99.90
10848;DHT22;5477;48.806;9.154;2022-09-21T03:27:38;5.40;99.90
10848;DHT22;5477;48.806;9.154;2022-09-21T03:30:09;5.50;99.90
10848;DHT22;5477;48.806;9.154;2022-09-21T03:32:37;5.60;99.90
10848;DHT22;5477;48.806;9.154;2022-09-21T03:35:05;5.60;99.90
10848;DHT22;5477;48.806;9.154;2022-09-21T03:37:35;5.50;99.90
10848;DHT22;5477;48.806;9.154;2022-09-21T03:40:08;5.50;99.90
10848;DHT22;5477;48.806;9.154;2022-09-21T03:42:37;5.50;99.90
10848;DHT22;5477;48.806;9.154;2022-09-21T03:45:06;5.50;99.90
10848;DHT22;5477;48.806;9.154;2022-09-21T03:47:36;5.50;99.90
10848;DHT22;5477;48.806;9.154;2022-09-21T03:50:06;5.50;99.90
10848;DHT22;5477;48.806;9.154;2022-09-21T03:52:37;5.50;99.90
10848;DHT22;5477;48.806;9.154;2022-09-21T03:55:07;5.40;99.90
10848;DHT22;5477;48.806;9.154;2022-09-21T03:57:35;5.40;99.90
10848;DHT22;5477;48.806;9.154;2022-09-21T04:00:06;5.40;99.90
10848;DHT22;5477;48.806;9.154;2022-09-21T04:02:34;5.30;99.90
10848;DHT22;5477;48.806;9.154;2022-09-21T04:05:03;5.30;99.90
10848;DHT22;5477;48.806;9.154;2022-09-21T04:07:33;5.20;99.90
10848;DHT22;5477;48.806;9.154;2022-09-21T04:10:04;5.20;99.90
10848;DHT22;5477;48.806;9.154;2022-09-21T04:12:32;5.20;99.90
10848;DHT22;5477;48.806;9.154;2022-09-21T04:15:01;5.30;99.90
10848;DHT22;5477;48.806;9.154;2022-09-21T04:17:29;5.20;99.90
10848;DHT22;5477;48.806;9.154;2022-09-21T04:19:57;5.40;99.90
10848;DHT22;5477;48.806;9.154;2022-09-21T04:22:25;5.40;99.90
10848;DHT22;5477;48.806;9.154;2022-09-21T04:24:53;5.50;99.90
10848;DHT22;5477;48.806;9.154;2022-09-21T04:27:23;5.40;99.90
10848;DHT22;5477;48.806;9.154;2022-09-21T04:29:51;5.30;99.90
10848;DHT22;5477;48.806;9.154;2022-09-21T04:32:19;5.20;99.90
10848;DHT22;5477;48.806;9.154;2022-09-21T04:34:47;5.20;99.90
10848;DHT22;5477;48.806;9.154;2022-09-21T04:37:15;5.20;99.90
10848;DHT22;5477;48.806;9.154;2022-09-21T04:39:43;5.20;99.90
10848;DHT22;5477;48.806;9.154;2022-09-21T04:42:11;5.20;99.90
10848;DHT22;5477;48.806;9.154;2022-09-21T04:44:41;5.10;99.90
10848;DHT22;5477;48.806;9.154;2022-09-21T04:47:09;5.10;99.90
10848;DHT22;5477;48.806;9.154;2022-09-21T04:49:37;5.10;99.90
10848;DHT22;5477;48.806;9.154;2022-09-21T04:52:05;5.10;99.90
10848;DHT22;5477;48.806;9.154;2022-09-21T04:54:33;5.10;99.90
10848;DHT22;5477;48.806;9.154;2022-09-21T04:57:01;5.10;99.90
10848;DHT22;5477;48.806;9.154;2022-09-21T04:59:29;5.10;99.90
10848;DHT22;5477;48.806;9.154;2022-09-21T05:01:59;5.10;99.90
10848;DHT22;5477;48.806;9.154;2022-09-21T05:04:26;5.10;99.90
10848;DHT22;5477;48.806;9.154;2022-09-21T05:06:55;5.00;99.90
10848;DHT22;5477;48.806;9.154;2022-09-21T05:09:25;5.00;99.90
10848;DHT22;5477;48.806;9.154;2022-09-21T05:12:10;5.00;99.90
10848;DHT22;5477;48.806;9.154;2022-09-21T05:14:38;4.90;99.90
10848;DHT22;5477;48.806;9.154;2022-09-21T05:17:08;4.90;99.90
10848;DHT22;5477;48.806;9.154;2022-09-21T05:19:36;4.90;99.90
10848;DHT22;5477;48.806;9.154;2022-09-21T05:22:04;4.90;99.90
10848;DHT22;5477;48.806;9.154;2022-09-21T05:24:32;4.90;99.90
10848;DHT22;5477;48.806;9.154;2022-09-21T05:27:01;4.90;99.90
10848;DHT22;5477;48.806;9.154;2022-09-21T05:29:29;5.00;99.90
10848;DHT22;5477;48.806;9.154;2022-09-21T05:32:02;5.00;99.90
10848;DHT22;5477;48.806;9.154;2022-09-21T05:34:42;5.00;99.90
10848;DHT22;5477;48.806;9.154;2022-09-21T05:37:31;5.10;99.90
10848;DHT22;5477;48.806;9.154;2022-09-21T05:40:05;5.20;99.90
10848;DHT22;5477;48.806;9.154;2022-09-21T05:42:33;5.20;99.90
10848;DHT22;5477;48.806;9.154;2022-09-21T05:45:02;5.10;99.90
10848;DHT22;5477;48.806;9.154;2022-09-21T05:47:37;5.10;99.90
10848;DHT22;5477;48.806;9.154;2022-09-21T05:50:21;5.10;99.90
10848;DHT22;5477;48.806;9.154;2022-09-21T05:53:00;5.10;99.90
10848;DHT22;5477;48.806;9.154;2022-09-21T05:55:36;5.10;99.90
10848;DHT22;5477;48.806;9.154;2022-09-21T05:58:12;5.20;99.90
10848;DHT22;5477;48.806;9.154;2022-09-21T06:00:51;5.40;99.90
10848;DHT22;5477;48.806;9.154;2022-09-21T06:03:26;5.50;99.90
10848;DHT22;5477;48.806;9.154;2022-09-21T06:05:57;5.70;99.90
10848;DHT22;5477;48.806;9.154;2022-09-21T06:08:25;5.80;99.90
10848;DHT22;5477;48.806;9.154;2022-09-21T06:10:53;5.90;99.90
10848;DHT22;5477;48.806;9.154;2022-09-21T06:13:22;6.00;99.90
10848;DHT22;5477;48.806;9.154;2022-09-21T06:15:49;6.10;99.90
10848;DHT22;5477;48.806;9.154;2022-09-21T06:18:17;6.20;99.90
10848;DHT22;5477;48.806;9.154;2022-09-21T06:20:46;6.40;99.90
10848;DHT22;5477;48.806;9.154;2022-09-21T06:23:15;6.60;99.90
10848;DHT22;5477;48.806;9.154;2022-09-21T06:25:43;6.70;99.90
10848;DHT22;5477;48.806;9.154;2022-09-21T06:28:12;6.90;99.90
10848;DHT22;5477;48.806;9.154;2022-09-21T06:30:40;7.00;99.90
10848;DHT22;5477;48.806;9.154;2022-09-21T06:33:10;7.10;99.90
10848;DHT22;5477;48.806;9.154;2022-09-21T06:35:38;7.20;99.90
10848;DHT22;5477;48.806;9.154;2022-09-21T06:38:10;7.30;99.90
10848;DHT22;5477;48.806;9.154;2022-09-21T06:40:39;7.50;99.90
10848;DHT22;5477;48.806;9.154;2022-09-21T06:43:07;7.70;99.90
10848;DHT22;5477;48.806;9.154;2022-09-21T06:45:36;7.80;99.90
10848;DHT22;5477;48.806;9.154;2022-09-21T06:48:04;8.10;99.90
10848;DHT22;5477;48.806;9.154;2022-09-21T06:50:32;8.20;99.90
10848;DHT22;5477;48.806;9.154;2022-09-21T06:53:00;8.40;99.90
10848;DHT22;5477;48.806;9.154;2022-09-21T06:55:30;8.50;99.90
10848;DHT22;5477;48.806;9.154;2022-09-21T06:58:03;8.70;99.90
10848;DHT22;5477;48.806;9.154;2022-09-21T07:00:31;8.60;99.90
10848;DHT22;5477;48.806;9.154;2022-09-21T07:02:59;8.70;99.90
10848;DHT22;5477;48.806;9.154;2022-09-21T07:05:27;8.70;99.90
10848;DHT22;5477;48.806;9.154;2022-09-21T07:07:56;8.90;99.90
10848;DHT22;5477;48.806;9.154;2022-09-21T07:10:25;9.00;99.90
10848;DHT22;5477;48.806;9.154;2022-09-21T07:12:53;9.10;99.90
10848;DHT22;5477;48.806;9.154;2022-09-21T07:15:23;9.20;99.90
10848;DHT22;5477;48.806;9.154;2022-09-21T07:17:54;9.30;99.90
10848;DHT22;5477;48.806;9.154;2022-09-21T07:20:31;9.50;99.90
10848;DHT22;5477;48.806;9.154;2022-09-21T07:22:59;9.60;99.90
10848;DHT22;5477;48.806;9.154;2022-09-21T07:25:27;9.70;99.90
10848;DHT22;5477;48.806;9.154;2022-09-21T07:27:55;9.80;99.90
10848;DHT22;5477;48.806;9.154;2022-09-21T07:30:28;9.90;99.90
10848;DHT22;5477;48.806;9.154;2022-09-21T07:32:56;9.90;99.90
10848;DHT22;5477;48.806;9.154;2022-09-21T07:35:24;10.00;99.90
10848;DHT22;5477;48.806;9.154;2022-09-21T07:37:52;10.10;99.90
10848;DHT22;5477;48.806;9.154;2022-09-21T07:40:22;10.20;99.90
10848;DHT22;5477;48.806;9.154;2022-09-21T07:42:51;10.30;99.90
10848;DHT22;5477;48.806;9.154;2022-09-21T07:45:19;10.30;99.90
10848;DHT22;5477;48.806;9.154;2022-09-21T07:47:48;10.40;99.90
10848;DHT22;5477;48.806;9.154;2022-09-21T07:50:16;10.50;99.90
10848;DHT22;5477;48.806;9.154;2022-09-21T07:52:44;10.50;99.90
10848;DHT22;5477;48.806;9.154;2022-09-21T07:55:12;10.60;99.90
10848;DHT22;5477;48.806;9.154;2022-09-21T07:57:40;10.60;99.90
10848;DHT22;5477;48.806;9.154;2022-09-21T08:00:26;10.60;99.90
10848;DHT22;5477;48.806;9.154;2022-09-21T08:02:59;10.70;99.90
10848;DHT22;5477;48.806;9.154;2022-09-21T08:05:27;10.80;99.90
10848;DHT22;5477;48.806;9.154;2022-09-21T08:07:55;10.80;99.90
10848;DHT22;5477;48.806;9.154;2022-09-21T08:10:24;10.80;99.90
10848;DHT22;5477;48.806;9.154;2022-09-21T08:12:55;10.90;99.90
10848;DHT22;5477;48.806;9.154;2022-09-21T08:15:23;10.90;99.90
10848;DHT22;5477;48.806;9.154;2022-09-21T08:18:12;11.00;99.90
10848;DHT22;5477;48.806;9.154;2022-09-21T08:20:40;11.10;99.90
10848;DHT22;5477;48.806;9.154;2022-09-21T08:23:08;11.20;99.90
10848;DHT22;5477;48.806;9.154;2022-09-21T08:25:38;11.40;99.90
10848;DHT22;5477;48.806;9.154;2022-09-21T08:28:05;11.40;99.90
10848;DHT22;5477;48.806;9.154;2022-09-21T08:30:35;11.50;99.90
10848;DHT22;5477;48.806;9.154;2022-09-21T08:33:03;11.60;99.90
10848;DHT22;5477;48.806;9.154;2022-09-21T08:35:34;11.70;99.90
10848;DHT22;5477;48.806;9.154;2022-09-21T08:38:02;11.80;99.90
10848;DHT22;5477;48.806;9.154;2022-09-21T08:40:31;11.90;99.90
10848;DHT22;5477;48.806;9.154;2022-09-21T08:43:02;12.10;99.90
10848;DHT22;5477;48.806;9.154;2022-09-21T08:45:32;12.30;99.90
10848;DHT22;5477;48.806;9.154;2022-09-21T08:48:04;12.50;99.90
10848;DHT22;5477;48.806;9.154;2022-09-21T08:50:39;12.70;99.90
10848;DHT22;5477;48.806;9.154;2022-09-21T08:53:13;13.00;99.90
10848;DHT22;5477;48.806;9.154;2022-09-21T08:55:42;13.20;99.90
10848;DHT22;5477;48.806;9.154;2022-09-21T08:58:20;13.40;99.90
10848;DHT22;5477;48.806;9.154;2022-09-21T09:01:00;13.60;99.90
10848;DHT22;5477;48.806;9.154;2022-09-21T09:04:15;13.80;99.90
10848;DHT22;5477;48.806;9.154;2022-09-21T09:06:58;14.00;99.90
10848;DHT22;5477;48.806;9.154;2022-09-21T09:09:50;14.30;99.90
10848;DHT22;5477;48.806;9.154;2022-09-21T09:12:33;14.50;99.90
10848;DHT22;5477;48.806;9.154;2022-09-21T09:15:23;14.80;99.90
10848;DHT22;5477;48.806;9.154;2022-09-21T09:17:57;15.00;99.90
10848;DHT22;5477;48.806;9.154;2022-09-21T09:20:28;15.40;99.90
10848;DHT22;5477;48.806;9.154;2022-09-21T09:23:05;15.50;99.90
10848;DHT22;5477;48.806;9.154;2022-09-21T09:25:37;15.60;99.90
10848;DHT22;5477;48.806;9.154;2022-09-21T09:28:17;16.00;99.90
10848;DHT22;5477;48.806;9.154;2022-09-21T09:30:54;16.10;99.90
10848;DHT22;5477;48.806;9.154;2022-09-21T09:33:25;16.30;99.90
10848;DHT22;5477;48.806;9.154;2022-09-21T09:35:59;16.40;99.90
10848;DHT22;5477;48.806;9.154;2022-09-21T09:38:33;16.50;99.90
10848;DHT22;5477;48.806;9.154;2022-09-21T09:41:36;16.40;99.90
10848;DHT22;5477;48.806;9.154;2022-09-21T09:44:19;16.30;99.90
10848;DHT22;5477;48.806;9.154;2022-09-21T09:46:58;16.40;99.90
10848;DHT22;5477;48.806;9.154;2022-09-21T09:49:35;16.40;99.90
10848;DHT22;5477;48.806;9.154;2022-09-21T09:52:08;16.60;99.90
10848;DHT22;5477;48.806;9.154;2022-09-21T09:54:39;16.60;99.90
10848;DHT22;5477;48.806;9.154;2022-09-21T09:57:09;16.60;99.90
10848;DHT22;5477;48.806;9.154;2022-09-21T09:59:40;16.60;99.90
10848;DHT22;5477;48.806;9.154;2022-09-21T10:02:18;16.70;99.90
10848;DHT22;5477;48.806;9.154;2022-09-21T10:04:57;17.00;99.90
10848;DHT22;5477;48.806;9.154;2022-09-21T10:07:34;17.20;99.90
10848;DHT22;5477;48.806;9.154;2022-09-21T10:10:22;17.10;99.90
10848;DHT22;5477;48.806;9.154;2022-09-21T10:12:51;17.20;99.90
10848;DHT22;5477;48.806;9.154;2022-09-21T10:15:22;17.50;99.90
10848;DHT22;5477;48.806;9.154;2022-09-21T10:17:57;17.60;99.90
10848;DHT22;5477;48.806;9.154;2022-09-21T10:20:31;17.80;99.70
10848;DHT22;5477;48.806;9.154;2022-09-21T10:23:00;18.00;99.10
10848;DHT22;5477;48.806;9.154;2022-09-21T10:25:30;18.20;99.10
10848;DHT22;5477;48.806;9.154;2022-09-21T10:28:03;18.40;98.70
10848;DHT22;5477;48.806;9.154;2022-09-21T10:30:34;18.80;97.70
10848;DHT22;5477;48.806;9.154;2022-09-21T10:33:17;19.30;96.80
10848;DHT22;5477;48.806;9.154;2022-09-21T10:35:51;19.80;95.60
10848;DHT22;5477;48.806;9.154;2022-09-21T10:38:20;20.20;95.30
10848;DHT22;5477;48.806;9.154;2022-09-21T10:40:54;20.50;94.30
10848;DHT22;5477;48.806;9.154;2022-09-21T10:43:24;21.00;94.40
10848;DHT22;5477;48.806;9.154;2022-09-21T10:45:54;21.10;94.40
10848;DHT22;5477;48.806;9.154;2022-09-21T10:48:24;20.80;93.90
10848;DHT22;5477;48.806;9.154;2022-09-21T10:50:54;20.20;94.20
10848;DHT22;5477;48.806;9.154;2022-09-21T10:53:25;19.70;94.90
10848;DHT22;5477;48.806;9.154;2022-09-21T10:55:59;19.70;95.00
10848;DHT22;5477;48.806;9.154;2022-09-21T10:59:08;19.60;95.40
10848;DHT22;5477;48.806;9.154;2022-09-21T11:01:42;18.80;96.30
10848;DHT22;5477;48.806;9.154;2022-09-21T11:04:14;18.70;97.20
10848;DHT22;5477;48.806;9.154;2022-09-21T11:06:44;18.70;97.20
10848;DHT22;5477;48.806;9.154;2022-09-21T11:09:18;18.60;97.20
10848;DHT22;5477;48.806;9.154;2022-09-21T11:11:52;18.60;97.10
10848;DHT22;5477;48.806;9.154;2022-09-21T11:14:34;18.20;97.70
10848;DHT22;5477;48.806;9.154;2022-09-21T11:17:08;17.50;98.90
10848;DHT22;5477;48.806;9.154;2022-09-21T11:19:43;17.30;99.20
10848;DHT22;5477;48.806;9.154;2022-09-21T11:22:20;17.40;99.40
10848;DHT22;5477;48.806;9.154;2022-09-21T11:24:56;17.80;99.40
10848;DHT22;5477;48.806;9.154;2022-09-21T11:27:32;18.40;98.50
10848;DHT22;5477;48.806;9.154;2022-09-21T11:30:08;19.00;97.30
10848;DHT22;5477;48.806;9.154;2022-09-21T11:32:54;19.40;96.70
10848;DHT22;5477;48.806;9.154;2022-09-21T11:35:32;19.40;96.50
10848;DHT22;5477;48.806;9.154;2022-09-21T11:38:07;19.50;95.10
10848;DHT22;5477;48.806;9.154;2022-09-21T11:40:47;19.90;95.10
10848;DHT22;5477;48.806;9.154;2022-09-21T11:43:31;20.70;94.10
10848;DHT22;5477;48.806;9.154;2022-09-21T11:46:11;21.30;92.10
10848;DHT22;5477;48.806;9.154;2022-09-21T11:48:54;21.30;91.20
10848;DHT22;5477;48.806;9.154;2022-09-21T11:51:38;21.00;91.50
10848;DHT22;5477;48.806;9.154;2022-09-21T11:57:08;20.00;92.20
10848;DHT22;5477;48.806;9.154;2022-09-21T11:59:56;20.20;92.00
10848;DHT22;5477;48.806;9.154;2022-09-21T12:03:04;20.00;91.70
10848;DHT22;5477;48.806;9.154;2022-09-21T12:05:38;19.20;92.30
10848;DHT22;5477;48.806;9.154;2022-09-21T12:11:24;19.90;92.10
10848;DHT22;5477;48.806;9.154;2022-09-21T12:14:01;20.80;90.80
10848;DHT22;5477;48.806;9.154;2022-09-21T12:16:39;20.30;88.40
10848;DHT22;5477;48.806;9.154;2022-09-21T12:19:15;19.60;90.40
10848;DHT22;5477;48.806;9.154;2022-09-21T12:21:47;19.90;90.70
10848;DHT22;5477;48.806;9.154;2022-09-21T12:24:19;20.00;89.30
10848;DHT22;5477;48.806;9.154;2022-09-21T12:26:52;20.00;88.70
10848;DHT22;5477;48.806;9.154;2022-09-21T12:29:24;20.40;88.20
10848;DHT22;5477;48.806;9.154;2022-09-21T12:32:02;21.10;87.00
10848;DHT22;5477;48.806;9.154;2022-09-21T12:34:36;21.50;83.20
10848;DHT22;5477;48.806;9.154;2022-09-21T12:37:11;21.90;82.20
10848;DHT22;5477;48.806;9.154;2022-09-21T12:39:44;22.20;80.80
10848;DHT22;5477;48.806;9.154;2022-09-21T12:42:25;22.30;79.20
10848;DHT22;5477;48.806;9.154;2022-09-21T12:44:58;22.50;76.80
10848;DHT22;5477;48.806;9.154;2022-09-21T12:47:41;22.60;76.90
10848;DHT22;5477;48.806;9.154;2022-09-21T12:50:17;21.80;77.30
10848;DHT22;5477;48.806;9.154;2022-09-21T12:52:47;21.00;78.40
10848;DHT22;5477;48.806;9.154;2022-09-21T12:55:27;20.30;79.60
10848;DHT22;5477;48.806;9.154;2022-09-21T12:58:03;19.60;81.30
10848;DHT22;5477;48.806;9.154;2022-09-21T13:00:47;18.80;81.50
10848;DHT22;5477;48.806;9.154;2022-09-21T13:03:23;18.70;82.90
10848;DHT22;5477;48.806;9.154;2022-09-21T13:06:07;18.50;83.60
10848;DHT22;5477;48.806;9.154;2022-09-21T13:08:40;18.50;84.30
10848;DHT22;5477;48.806;9.154;2022-09-21T13:11:10;18.50;83.60
10848;DHT22;5477;48.806;9.154;2022-09-21T13:13:43;18.50;84.10
10848;DHT22;5477;48.806;9.154;2022-09-21T13:16:24;18.80;83.70
10848;DHT22;5477;48.806;9.154;2022-09-21T13:18:56;19.50;83.10
10848;DHT22;5477;48.806;9.154;2022-09-21T13:21:27;20.50;81.20
10848;DHT22;5477;48.806;9.154;2022-09-21T13:23:57;21.50;78.10
10848;DHT22;5477;48.806;9.154;2022-09-21T13:26:31;22.20;74.50
10848;DHT22;5477;48.806;9.154;2022-09-21T13:31:54;22.60;70.60
10848;DHT22;5477;48.806;9.154;2022-09-21T13:34:28;21.80;71.80
10848;DHT22;5477;48.806;9.154;2022-09-21T13:43:43;19.90;78.10
10848;DHT22;5477;48.806;9.154;2022-09-21T13:46:45;20.80;75.70
10848;DHT22;5477;48.806;9.154;2022-09-21T13:49:18;22.00;73.60
10848;DHT22;5477;48.806;9.154;2022-09-21T13:51:54;22.60;69.90
10848;DHT22;5477;48.806;9.154;2022-09-21T13:54:27;22.50;66.70
10848;DHT22;5477;48.806;9.154;2022-09-21T13:57:05;22.00;66.60
10848;DHT22;5477;48.806;9.154;2022-09-21T13:59:36;21.80;67.40
10848;DHT22;5477;48.806;9.154;2022-09-21T14:02:23;21.30;66.90
10848;DHT22;5477;48.806;9.154;2022-09-21T14:05:02;20.50;69.70
10848;DHT22;5477;48.806;9.154;2022-09-21T14:07:33;20.80;69.70
10848;DHT22;5477;48.806;9.154;2022-09-21T14:10:04;21.40;68.00
10848;DHT22;5477;48.806;9.154;2022-09-21T14:12:36;21.60;67.20
10848;DHT22;5477;48.806;9.154;2022-09-21T14:15:34;21.80;67.40
10848;DHT22;5477;48.806;9.154;2022-09-21T14:21:16;20.00;71.30
10848;DHT22;5477;48.806;9.154;2022-09-21T14:24:22;20.50;71.20
10848;DHT22;5477;48.806;9.154;2022-09-21T14:27:10;20.50;69.20
10848;DHT22;5477;48.806;9.154;2022-09-21T14:29:43;21.00;68.30
10848;DHT22;5477;48.806;9.154;2022-09-21T14:32:18;21.60;67.30
10848;DHT22;5477;48.806;9.154;2022-09-21T14:34:50;21.30;63.80
10848;DHT22;5477;48.806;9.154;2022-09-21T14:37:40;20.60;66.10
10848;DHT22;5477;48.806;9.154;2022-09-21T14:40:17;20.30;66.70
10848;DHT22;5477;48.806;9.154;2022-09-21T14:42:47;20.90;66.40
10848;DHT22;5477;48.806;9.154;2022-09-21T14:45:17;21.40;64.70
10848;DHT22;5477;48.806;9.154;2022-09-21T14:47:56;21.70;64.80
10848;DHT22;5477;48.806;9.154;2022-09-21T14:50:31;22.00;63.70
10848;DHT22;5477;48.806;9.154;2022-09-21T14:56:20;21.50;63.40
10848;DHT22;5477;48.806;9.154;2022-09-21T14:59:11;21.40;62.80
10848;DHT22;5477;48.806;9.154;2022-09-21T15:01:54;21.30;64.40
10848;DHT22;5477;48.806;9.154;2022-09-21T15:04:37;21.50;63.50
10848;DHT22;5477;48.806;9.154;2022-09-21T15:07:21;21.10;63.90
10848;DHT22;5477;48.806;9.154;2022-09-21T15:10:19;20.20;65.30
10848;DHT22;5477;48.806;9.154;2022-09-21T15:13:14;19.70;65.10
10848;DHT22;5477;48.806;9.154;2022-09-21T15:15:56;19.30;66.50
10848;DHT22;5477;48.806;9.154;2022-09-21T15:18:26;18.80;67.70
10848;DHT22;5477;48.806;9.154;2022-09-21T15:20:57;18.20;67.80
10848;DHT22;5477;48.806;9.154;2022-09-21T15:23:30;18.00;68.80
10848;DHT22;5477;48.806;9.154;2022-09-21T15:26:01;17.90;68.60
10848;DHT22;5477;48.806;9.154;2022-09-21T15:28:35;17.90;70.10
10848;DHT22;5477;48.806;9.154;2022-09-21T15:31:30;17.70;70.30
10848;DHT22;5477;48.806;9.154;2022-09-21T15:33:59;17.50;70.00
10848;DHT22;5477;48.806;9.154;2022-09-21T15:36:29;17.30;69.80
10848;DHT22;5477;48.806;9.154;2022-09-21T15:38:57;17.30;70.30
10848;DHT22;5477;48.806;9.154;2022-09-21T15:41:41;17.20;70.60
10848;DHT22;5477;48.806;9.154;2022-09-21T15:44:16;17.00;72.60
10848;DHT22;5477;48.806;9.154;2022-09-21T15:46:47;16.90;72.00
10848;DHT22;5477;48.806;9.154;2022-09-21T15:49:17;16.90;72.30
10848;DHT22;5477;48.806;9.154;2022-09-21T15:51:49;16.90;72.10
10848;DHT22;5477;48.806;9.154;2022-09-21T15:54:31;16.90;71.90
10848;DHT22;5477;48.806;9.154;2022-09-21T15:57:04;16.90;72.20
10848;DHT22;5477;48.806;9.154;2022-09-21T15:59:35;16.80;72.30
10848;DHT22;5477;48.806;9.154;2022-09-21T16:02:10;16.80;73.10
10848;DHT22;5477;48.806;9.154;2022-09-21T16:04:45;16.70;72.20
10848;DHT22;5477;48.806;9.154;2022-09-21T16:07:28;16.60;72.60
10848;DHT22;5477;48.806;9.154;2022-09-21T16:09:57;16.50;73.40
10848;DHT22;5477;48.806;9.154;2022-09-21T16:12:41;16.50;72.70
10848;DHT22;5477;48.806;9.154;2022-09-21T16:15:24;16.40;73.10
10848;DHT22;5477;48.806;9.154;2022-09-21T16:17:56;16.40;73.50
10848;DHT22;5477;48.806;9.154;2022-09-21T16:20:41;16.40;74.00
10848;DHT22;5477;48.806;9.154;2022-09-21T16:23:15;16.30;74.20
10848;DHT22;5477;48.806;9.154;2022-09-21T16:25:43;16.30;74.30
10848;DHT22;5477;48.806;9.154;2022-09-21T16:28:33;16.20;76.40
10848;DHT22;5477;48.806;9.154;2022-09-21T16:31:22;16.20;78.30
10848;DHT22;5477;48.806;9.154;2022-09-21T16:34:04;16.20;79.50
10848;DHT22;5477;48.806;9.154;2022-09-21T16:36:40;16.20;80.30
10848;DHT22;5477;48.806;9.154;2022-09-21T16:39:10;16.10;81.00
10848;DHT22;5477;48.806;9.154;2022-09-21T16:41:44;16.10;81.70
10848;DHT22;5477;48.806;9.154;2022-09-21T16:44:15;16.00;81.60
10848;DHT22;5477;48.806;9.154;2022-09-21T16:46:51;15.90;82.50
10848;DHT22;5477;48.806;9.154;2022-09-21T16:49:20;15.90;83.60
10848;DHT22;5477;48.806;9.154;2022-09-21T16:51:55;15.80;83.10
10848;DHT22;5477;48.806;9.154;2022-09-21T16:54:23;15.80;82.40
10848;DHT22;5477;48.806;9.154;2022-09-21T16:56:54;15.80;82.30